Canefield Airport

Partly cloudy with adjacent showers
28oC (82oF)

Partly cloudy with adjacent showers


Winds: West north westerly @ 03kts / 06km/h

Humidity: 57%

Barometric Pressure: 1010 mb

Accumulated Rainfall for March: 41.9 mm

Updated: 16:00 local time (20:00 UTC)

Douglas-Charles Airport

Partly cloudy
24oC (75oF)

Partly cloudy


Winds: West north westerly @ 01kt / 02km/h

Humidity: 88%

Barometric Pressure: 1013 mb

Accumulated Rainfall for March: 114.2 mm

Updated: 19:00 local time (23:00 UTC)

Satellite Imagery

Satellite Imagery
Click image for larger view. (Source: National Hurricane Center).

Aviation Routine Report (METAR)

Douglas-Charles: METAR TDPD 272300Z 30001KT 9999 SCT016 24/22 Q1013=
Canefield: METAR TDCF 272000Z 30003KT 9999 SCT019 28/19 Q1010=